createdAt,value
2023-01-26T00:00:48.332Z,82.35
2023-01-26T00:01:50.811Z,82.30
2023-01-26T00:02:54.611Z,73.93
2023-01-26T00:04:17.110Z,74.78
2023-01-26T00:05:38.922Z,73.07
2023-01-26T00:07:01.430Z,78.50
2023-01-26T00:08:22.926Z,73.90
2023-01-26T00:09:45.376Z,71.10
2023-01-26T00:11:09.516Z,72.00
2023-01-26T00:12:32.020Z,71.00
2023-01-26T00:13:56.796Z,73.85
2023-01-26T00:15:18.344Z,75.75
2023-01-26T00:16:40.808Z,82.90
2023-01-26T00:18:03.609Z,74.38
2023-01-26T00:19:26.186Z,64.95
2023-01-26T00:20:50.690Z,76.95
2023-01-26T00:22:12.184Z,80.88
2023-01-26T00:23:37.403Z,73.07
2023-01-26T00:24:59.881Z,80.43
2023-01-26T00:26:23.415Z,76.45
2023-01-26T00:27:45.912Z,87.13
2023-01-26T00:29:09.697Z,80.90
2023-01-26T00:30:32.318Z,75.80
2023-01-26T00:31:54.803Z,86.90
2023-01-26T00:33:18.683Z,78.85
2023-01-26T00:34:40.863Z,83.47
2023-01-26T00:36:03.744Z,76.47
2023-01-26T00:37:25.291Z,76.18
2023-01-26T00:38:47.932Z,85.72
2023-01-26T00:40:11.856Z,79.93
2023-01-26T00:41:52.049Z,85.70
2023-01-26T00:43:15.482Z,80.68
2023-01-26T00:44:38.772Z,82.10
2023-01-26T00:46:01.321Z,72.00
2023-01-26T00:47:22.837Z,79.95
2023-01-26T00:48:45.310Z,78.97
2023-01-26T00:50:09.139Z,77.45
2023-01-26T00:51:30.923Z,78.95
2023-01-26T00:52:53.959Z,81.88
2023-01-26T00:54:15.570Z,81.60
2023-01-26T00:55:38.468Z,82.22
2023-01-26T00:57:00.297Z,90.60
2023-01-26T00:58:22.803Z,90.10
2023-01-26T00:59:46.639Z,88.38
2023-01-26T01:01:08.699Z,77.57
2023-01-26T01:02:31.257Z,80.30
2023-01-26T01:03:52.779Z,83.13
2023-01-26T01:05:15.286Z,87.20
2023-01-26T01:06:36.869Z,85.70
2023-01-26T01:07:59.623Z,78.18
2023-01-26T01:09:22.120Z,80.10
2023-01-26T01:10:44.592Z,94.57
2023-01-26T01:12:06.398Z,89.35
2023-01-26T01:13:28.870Z,88.45
2023-01-26T01:14:52.888Z,86.57
2023-01-26T01:16:15.650Z,87.53
2023-01-26T01:17:38.596Z,90.43
2023-01-26T01:19:00.094Z,89.65
2023-01-26T01:20:22.628Z,93.68
2023-01-26T01:21:46.045Z,78.10
2023-01-26T01:23:07.560Z,85.82
2023-01-26T01:24:30.027Z,80.55
2023-01-26T01:25:56.929Z,81.85
2023-01-26T01:27:19.428Z,92.20
2023-01-26T01:28:41.837Z,93.72
2023-01-26T01:30:08.016Z,93.28
2023-01-26T01:31:31.181Z,81.60
2023-01-26T01:32:53.412Z,84.15
2023-01-26T01:34:15.887Z,93.32
2023-01-26T01:35:38.377Z,89.45
2023-01-26T01:37:01.959Z,83.88
2023-01-26T01:38:24.786Z,84.93
2023-01-26T01:39:50.536Z,84.50
2023-01-26T01:41:13.105Z,87.05
2023-01-26T01:42:35.633Z,83.63
2023-01-26T01:44:18.691Z,81.93
2023-01-26T01:45:43.584Z,86.78
2023-01-26T01:47:10.862Z,79.38
2023-01-26T01:48:38.637Z,92.30
2023-01-26T01:50:04.116Z,86.97
2023-01-26T01:51:33.143Z,76.30
2023-01-26T01:52:57.080Z,87.82
2023-01-26T01:54:23.755Z,85.63
2023-01-26T01:55:46.328Z,96.78
2023-01-26T01:57:17.628Z,82.70
2023-01-26T01:58:43.143Z,85.72
2023-01-26T02:00:09.148Z,88.35
2023-01-26T02:01:33.187Z,89.63
2023-01-26T02:03:10.887Z,99.70
2023-01-26T02:04:33.418Z,88.57
2023-01-26T02:05:57.890Z,84.28
2023-01-26T02:07:20.485Z,88.18
2023-01-26T02:08:45.045Z,84.43
2023-01-26T02:10:20.558Z,88.50
2023-01-26T02:11:47.616Z,84.80
2023-01-26T02:13:09.640Z,89.38
2023-01-26T02:14:33.932Z,83.63
2023-01-26T02:15:56.204Z,90.82
2023-01-26T02:17:20.203Z,82.47
2023-01-26T02:18:41.842Z,81.05
2023-01-26T02:20:09.432Z,91.15
2023-01-26T02:21:31.866Z,83.40
2023-01-26T02:23:01.527Z,81.88
2023-01-26T02:24:29.961Z,77.30
2023-01-26T02:26:05.582Z,79.43
2023-01-26T02:27:28.084Z,89.28
2023-01-26T02:28:50.844Z,88.90
2023-01-26T02:30:15.275Z,82.35
2023-01-26T02:31:39.032Z,73.28
2023-01-26T02:33:02.092Z,80.25
2023-01-26T02:34:29.122Z,79.93
2023-01-26T02:35:52.092Z,74.80
2023-01-26T02:37:15.483Z,82.15
2023-01-26T02:38:42.865Z,88.30
2023-01-26T02:40:12.146Z,78.65
2023-01-26T02:41:58.758Z,81.45
2023-01-26T02:43:22.086Z,78.30
2023-01-26T02:44:44.590Z,81.70
2023-01-26T02:46:07.213Z,74.78
2023-01-26T02:47:28.755Z,78.40
2023-01-26T02:49:09.013Z,76.53
2023-01-26T02:50:32.060Z,77.45
2023-01-26T02:51:53.559Z,78.25
2023-01-26T02:53:16.043Z,77.30
2023-01-26T02:54:56.057Z,71.43
2023-01-26T02:56:17.548Z,76.40
2023-01-26T02:57:41.479Z,76.68
2023-01-26T02:59:03.988Z,77.78
2023-01-26T03:00:28.069Z,76.50
2023-01-26T03:01:50.886Z,73.63
2023-01-26T03:03:16.614Z,76.35
2023-01-26T03:04:38.170Z,85.38
2023-01-26T03:06:00.624Z,85.88
2023-01-26T03:07:22.309Z,80.03
2023-01-26T03:08:44.851Z,72.80
2023-01-26T03:10:08.640Z,81.80
2023-01-26T03:11:41.941Z,75.00
2023-01-26T03:13:05.913Z,74.57
2023-01-26T03:14:27.448Z,72.28
2023-01-26T03:15:54.528Z,83.38
2023-01-26T03:17:16.053Z,85.97
2023-01-26T03:18:56.047Z,86.85
2023-01-26T03:20:36.443Z,82.80
2023-01-26T03:22:16.324Z,87.70
2023-01-26T03:23:56.384Z,78.60
2023-01-26T03:25:36.436Z,82.28
2023-01-26T03:26:57.817Z,80.75
2023-01-26T03:28:00.297Z,79.50
2023-01-26T03:29:03.368Z,78.28
2023-01-26T03:30:06.863Z,79.20
2023-01-26T03:31:08.400Z,72.55
2023-01-26T03:32:10.903Z,69.15
2023-01-26T03:33:12.385Z,64.55
2023-01-26T03:34:15.458Z,63.42
2023-01-26T03:35:22.632Z,68.93
2023-01-26T03:36:24.243Z,75.35
2023-01-26T03:37:26.906Z,66.03
2023-01-26T03:38:28.395Z,70.43
2023-01-26T03:39:48.888Z,70.80
2023-01-26T03:41:09.285Z,74.60
2023-01-26T03:42:29.644Z,60.95
2023-01-26T03:43:55.098Z,75.60
2023-01-26T03:45:16.662Z,76.03
2023-01-26T03:46:36.917Z,68.45
2023-01-26T03:47:57.373Z,64.93
2023-01-26T03:49:17.675Z,65.97
2023-01-26T03:50:38.196Z,70.80
2023-01-26T03:51:58.559Z,67.25
2023-01-26T03:53:18.751Z,67.15
2023-01-26T03:54:39.060Z,68.40
2023-01-26T03:55:59.251Z,69.55
2023-01-26T03:57:01.735Z,66.78
2023-01-26T03:58:03.262Z,74.20
2023-01-26T03:59:09.044Z,62.20
2023-01-26T04:00:14.997Z,67.28
2023-01-26T04:01:28.135Z,63.78
2023-01-26T04:02:49.012Z,65.68
2023-01-26T04:04:15.458Z,69.25
2023-01-26T04:05:35.773Z,62.42
2023-01-26T04:06:57.276Z,71.05
2023-01-26T04:08:22.565Z,73.57
2023-01-26T04:09:24.089Z,77.20
2023-01-26T04:10:27.708Z,73.35
2023-01-26T04:11:29.273Z,78.75
2023-01-26T04:12:31.795Z,80.93
2023-01-26T04:13:51.726Z,69.25
2023-01-26T04:15:12.098Z,64.40
2023-01-26T04:16:33.775Z,71.25
2023-01-26T04:17:54.293Z,82.95
2023-01-26T04:19:14.576Z,64.22
2023-01-26T04:20:34.876Z,65.13
2023-01-26T04:21:38.547Z,65.40
2023-01-26T04:22:45.242Z,61.05
2023-01-26T04:23:47.813Z,63.15
2023-01-26T04:24:49.380Z,68.40
2023-01-26T04:25:51.887Z,58.63
2023-01-26T04:26:56.381Z,66.72
2023-01-26T04:27:58.856Z,63.70
2023-01-26T04:29:01.809Z,65.60
2023-01-26T04:30:05.991Z,65.75
2023-01-26T04:31:10.917Z,63.47
2023-01-26T04:32:14.853Z,64.68
2023-01-26T04:33:16.379Z,66.22
2023-01-26T04:34:23.878Z,69.22
2023-01-26T04:35:25.461Z,62.50
2023-01-26T04:36:28.235Z,68.35
2023-01-26T04:37:30.765Z,71.93
2023-01-26T04:38:32.590Z,65.22
2023-01-26T04:39:45.049Z,68.63
2023-01-26T04:40:53.112Z,73.45
2023-01-26T04:41:55.638Z,71.25
2023-01-26T04:42:57.171Z,70.47
2023-01-26T04:43:59.973Z,63.35
2023-01-26T04:45:01.504Z,63.40
2023-01-26T04:46:07.016Z,59.53
2023-01-26T04:47:08.683Z,67.68
2023-01-26T04:48:12.522Z,71.28
2023-01-26T04:49:14.208Z,66.30
2023-01-26T04:50:17.160Z,69.72
2023-01-26T04:51:20.315Z,61.97
2023-01-26T04:52:22.802Z,70.60
2023-01-26T04:53:24.718Z,72.72
2023-01-26T04:54:28.106Z,72.18
2023-01-26T04:55:29.613Z,74.75
2023-01-26T04:56:34.539Z,68.03
2023-01-26T04:57:36.115Z,72.72
2023-01-26T04:58:38.646Z,76.72
2023-01-26T04:59:40.142Z,69.97
2023-01-26T05:00:42.890Z,63.75
2023-01-26T05:01:54.485Z,63.83
2023-01-26T05:02:57.792Z,64.10
2023-01-26T05:04:01.534Z,62.33
2023-01-26T05:05:04.212Z,62.70
2023-01-26T05:06:06.208Z,67.65
2023-01-26T05:07:08.747Z,62.75
2023-01-26T05:08:10.289Z,66.03
2023-01-26T05:09:12.929Z,62.92
2023-01-26T05:10:15.864Z,73.50
2023-01-26T05:11:18.763Z,67.68
2023-01-26T05:12:35.431Z,77.03
2023-01-26T05:13:38.158Z,66.93
2023-01-26T05:14:50.633Z,73.07
2023-01-26T05:15:52.216Z,69.00
2023-01-26T05:16:54.718Z,67.80
2023-01-26T05:17:57.857Z,61.85
2023-01-26T05:19:01.765Z,66.10
2023-01-26T05:20:03.671Z,71.60
2023-01-26T05:21:12.001Z,67.30
2023-01-26T05:22:13.503Z,69.88
2023-01-26T05:23:16.005Z,73.00
2023-01-26T05:24:17.514Z,76.32
2023-01-26T05:25:28.754Z,63.33
2023-01-26T05:26:30.485Z,60.83
2023-01-26T05:27:33.124Z,79.93
2023-01-26T05:28:35.252Z,66.07
2023-01-26T05:29:39.107Z,74.40
2023-01-26T05:30:40.656Z,69.93
2023-01-26T05:31:43.945Z,66.18
2023-01-26T05:32:45.577Z,69.10
2023-01-26T05:33:48.087Z,71.05
2023-01-26T05:34:50.949Z,81.40
2023-01-26T05:35:54.378Z,62.35
2023-01-26T05:36:55.917Z,72.30
2023-01-26T05:37:58.647Z,70.15
2023-01-26T05:39:00.170Z,73.60
2023-01-26T05:40:03.951Z,64.57
2023-01-26T05:41:15.524Z,72.10
2023-01-26T05:42:18.125Z,76.25
2023-01-26T05:43:21.962Z,70.45
2023-01-26T05:44:25.624Z,76.38
2023-01-26T05:45:28.810Z,67.45
2023-01-26T05:46:31.670Z,69.50
2023-01-26T05:47:33.505Z,76.43
2023-01-26T05:48:38.321Z,63.13
2023-01-26T05:49:42.739Z,67.90
2023-01-26T05:50:46.571Z,64.32
2023-01-26T05:51:54.030Z,70.65
2023-01-26T05:52:57.053Z,69.38
2023-01-26T05:53:58.586Z,71.45
2023-01-26T05:55:01.131Z,78.22
2023-01-26T05:56:02.653Z,79.63
2023-01-26T05:57:05.524Z,75.03
2023-01-26T05:58:07.120Z,66.40
2023-01-26T05:59:14.422Z,76.70
2023-01-26T06:00:16.872Z,67.18
2023-01-26T06:01:21.011Z,66.75
2023-01-26T06:02:22.777Z,75.15
2023-01-26T06:03:25.470Z,65.30
2023-01-26T06:04:27.466Z,67.20
2023-01-26T06:05:39.991Z,66.13
2023-01-26T06:06:42.910Z,74.53
2023-01-26T06:07:45.418Z,63.80
2023-01-26T06:08:46.987Z,66.72
2023-01-26T06:09:49.493Z,65.95
2023-01-26T06:10:51.022Z,60.58
2023-01-26T06:11:54.049Z,60.88
2023-01-26T06:12:57.723Z,58.92
2023-01-26T06:13:59.271Z,62.40
2023-01-26T06:15:02.540Z,63.80
2023-01-26T06:16:04.387Z,57.72
2023-01-26T06:17:07.617Z,67.28
2023-01-26T06:18:20.192Z,60.75
2023-01-26T06:19:22.494Z,57.83
2023-01-26T06:20:24.985Z,58.75
2023-01-26T06:21:26.527Z,67.50
2023-01-26T06:22:30.395Z,63.35
2023-01-26T06:23:32.972Z,60.50
2023-01-26T06:24:34.746Z,57.85
2023-01-26T06:25:38.627Z,58.10
2023-01-26T06:26:40.441Z,60.38
2023-01-26T06:27:43.196Z,56.97
2023-01-26T06:28:44.696Z,55.67
2023-01-26T06:29:47.310Z,59.10
2023-01-26T06:30:49.159Z,54.30
2023-01-26T06:31:51.700Z,59.72
2023-01-26T06:32:53.489Z,61.47
2023-01-26T06:33:56.559Z,53.50
2023-01-26T06:34:59.091Z,52.85
2023-01-26T06:36:02.931Z,57.80
2023-01-26T06:37:04.541Z,48.92
2023-01-26T06:38:08.522Z,55.17
2023-01-26T06:39:12.131Z,53.25
2023-01-26T06:40:24.662Z,59.08
2023-01-26T06:41:26.471Z,53.95
2023-01-26T06:42:29.000Z,51.78
2023-01-26T06:43:30.566Z,57.95
2023-01-26T06:44:33.057Z,58.22
2023-01-26T06:45:35.519Z,58.08
2023-01-26T06:46:37.614Z,60.78
2023-01-26T06:47:45.768Z,56.30
2023-01-26T06:48:47.289Z,55.08
2023-01-26T06:49:49.797Z,50.30
2023-01-26T06:50:52.327Z,55.13
2023-01-26T06:52:03.951Z,50.40
2023-01-26T06:53:26.884Z,52.40
2023-01-26T06:54:29.372Z,58.08
2023-01-26T06:55:37.350Z,49.95
2023-01-26T06:56:39.288Z,49.63
2023-01-26T06:57:47.426Z,47.60
2023-01-26T06:58:49.070Z,55.35
2023-01-26T06:59:51.604Z,52.72
2023-01-26T07:00:53.279Z,48.80
2023-01-26T07:01:55.827Z,52.75
2023-01-26T07:02:57.558Z,51.45
2023-01-26T07:04:00.067Z,50.15
2023-01-26T07:05:01.755Z,49.63
2023-01-26T07:06:05.877Z,56.15
2023-01-26T07:07:08.103Z,44.33
2023-01-26T07:08:11.934Z,50.53
2023-01-26T07:09:13.534Z,48.25
2023-01-26T07:10:16.773Z,56.75
2023-01-26T07:11:20.026Z,52.30
2023-01-26T07:12:22.601Z,59.70
2023-01-26T07:13:24.117Z,50.10
2023-01-26T07:14:26.612Z,48.65
2023-01-26T07:15:28.133Z,49.40
2023-01-26T07:16:33.444Z,49.72
2023-01-26T07:17:35.444Z,53.83
2023-01-26T07:18:38.270Z,47.25
2023-01-26T07:19:40.779Z,45.88
2023-01-26T07:20:42.291Z,51.72
2023-01-26T07:21:44.873Z,49.53
2023-01-26T07:22:47.404Z,52.95
2023-01-26T07:23:57.739Z,51.28
2023-01-26T07:25:01.378Z,49.45
2023-01-26T07:26:05.967Z,49.10
2023-01-26T07:27:08.414Z,55.30
2023-01-26T07:28:11.183Z,57.90
2023-01-26T07:29:12.727Z,54.33
2023-01-26T07:30:19.707Z,53.42
2023-01-26T07:31:21.354Z,53.50
2023-01-26T07:32:23.982Z,47.03
2023-01-26T07:33:26.613Z,48.20
2023-01-26T07:34:29.162Z,48.53
2023-01-26T07:35:30.847Z,53.72
2023-01-26T07:36:33.432Z,53.85
2023-01-26T07:37:39.542Z,46.80
2023-01-26T07:38:42.068Z,52.42
2023-01-26T07:39:45.907Z,54.40
2023-01-26T07:40:47.545Z,53.67
2023-01-26T07:41:50.231Z,48.97
2023-01-26T07:42:53.154Z,54.78
2023-01-26T07:43:59.381Z,48.63
2023-01-26T07:45:01.332Z,46.58
2023-01-26T07:46:04.642Z,47.28
2023-01-26T07:47:06.253Z,51.20
2023-01-26T07:48:09.563Z,50.22
2023-01-26T07:49:12.668Z,54.40
2023-01-26T07:50:15.740Z,48.40
2023-01-26T07:51:21.524Z,56.83
2023-01-26T07:52:23.046Z,53.75
2023-01-26T07:53:29.205Z,52.30
2023-01-26T07:54:34.789Z,44.42
2023-01-26T07:55:39.738Z,49.20
2023-01-26T07:56:44.036Z,44.30
2023-01-26T07:57:48.421Z,60.47
2023-01-26T07:58:52.205Z,50.40
2023-01-26T07:59:55.898Z,52.05
2023-01-26T08:01:04.663Z,45.33
2023-01-26T08:02:07.259Z,57.40
2023-01-26T08:03:09.078Z,53.20
2023-01-26T08:04:14.316Z,59.63
2023-01-26T08:05:16.088Z,53.38
2023-01-26T08:06:19.207Z,58.58
2023-01-26T08:07:21.833Z,50.78
2023-01-26T08:08:23.512Z,53.78
2023-01-26T08:09:36.020Z,49.95
2023-01-26T08:10:40.859Z,45.67
2023-01-26T08:11:43.399Z,51.88
2023-01-26T08:12:44.899Z,51.33
2023-01-26T08:13:47.481Z,44.72
2023-01-26T08:14:50.032Z,48.58
2023-01-26T08:15:55.104Z,40.67
2023-01-26T08:16:57.600Z,42.25
2023-01-26T08:18:00.779Z,44.38
2023-01-26T08:19:03.851Z,41.97
2023-01-26T08:20:06.221Z,42.75
2023-01-26T08:21:09.132Z,39.13
2023-01-26T08:22:10.852Z,40.15
2023-01-26T08:23:13.309Z,43.13
2023-01-26T08:24:16.128Z,40.80
2023-01-26T08:25:18.857Z,40.10
2023-01-26T08:26:22.975Z,39.63
2023-01-26T08:27:24.683Z,40.15
2023-01-26T08:28:27.240Z,44.25
2023-01-26T08:29:30.187Z,41.45
2023-01-26T08:30:31.754Z,46.63
2023-01-26T08:31:34.355Z,40.67
2023-01-26T08:32:36.111Z,42.85
2023-01-26T08:33:39.572Z,40.35
2023-01-26T08:34:41.219Z,39.13
2023-01-26T08:35:43.921Z,45.65
2023-01-26T08:36:46.424Z,41.17
2023-01-26T08:37:48.942Z,36.00
2023-01-26T08:38:50.981Z,41.00
2023-01-26T08:39:53.543Z,43.30
2023-01-26T08:40:56.048Z,37.40
2023-01-26T08:41:59.906Z,36.00
2023-01-26T08:43:03.564Z,39.47
2023-01-26T08:44:06.386Z,44.53
2023-01-26T08:45:08.770Z,51.33
2023-01-26T08:46:12.067Z,53.10
2023-01-26T08:47:13.607Z,46.15
2023-01-26T08:48:16.087Z,47.25
2023-01-26T08:49:18.684Z,43.33
2023-01-26T08:50:21.190Z,43.95
2023-01-26T08:51:23.693Z,42.22
2023-01-26T08:52:25.198Z,46.38
2023-01-26T08:53:28.191Z,40.17
2023-01-26T08:54:29.909Z,45.17
2023-01-26T08:55:33.326Z,42.13
2023-01-26T08:56:44.665Z,43.05
2023-01-26T08:57:52.215Z,42.00
2023-01-26T08:58:54.743Z,42.78
2023-01-26T08:59:57.265Z,43.17
2023-01-26T09:01:00.008Z,45.67
2023-01-26T09:02:01.689Z,53.17
2023-01-26T09:03:07.430Z,42.55
2023-01-26T09:04:09.058Z,47.00
2023-01-26T09:05:11.618Z,46.33
2023-01-26T09:06:18.109Z,44.13
2023-01-26T09:07:20.644Z,46.50
2023-01-26T09:08:27.235Z,44.90
2023-01-26T09:09:29.878Z,46.58
2023-01-26T09:10:33.164Z,47.25
2023-01-26T09:11:34.727Z,49.05
2023-01-26T09:12:39.006Z,50.47
2023-01-26T09:13:44.660Z,43.83
2023-01-26T09:14:46.315Z,49.92
2023-01-26T09:15:48.839Z,51.85
2023-01-26T09:16:51.559Z,53.25
2023-01-26T09:17:53.555Z,46.72
2023-01-26T09:18:56.331Z,46.83
2023-01-26T09:19:57.916Z,51.53
2023-01-26T09:21:04.064Z,48.05
2023-01-26T09:22:14.502Z,52.17
2023-01-26T09:23:18.097Z,51.78
2023-01-26T09:24:21.013Z,49.92
2023-01-26T09:25:23.635Z,52.20
2023-01-26T09:26:26.331Z,47.65
2023-01-26T09:27:29.290Z,52.97
2023-01-26T09:28:31.890Z,39.80
2023-01-26T09:29:35.792Z,51.05
2023-01-26T09:30:38.401Z,48.60
2023-01-26T09:31:40.490Z,51.92
2023-01-26T09:32:43.096Z,51.67
2023-01-26T09:33:45.683Z,58.85
2023-01-26T09:34:51.303Z,51.05
2023-01-26T09:35:53.767Z,49.08
2023-01-26T09:36:56.333Z,53.13
2023-01-26T09:37:58.817Z,52.72
2023-01-26T09:39:00.414Z,50.85
2023-01-26T09:40:03.675Z,53.90
2023-01-26T09:41:09.475Z,57.60
2023-01-26T09:42:32.034Z,55.53
2023-01-26T09:43:39.056Z,55.05
2023-01-26T09:44:49.677Z,48.50
2023-01-26T09:45:59.557Z,60.05
2023-01-26T09:47:13.468Z,55.25
2023-01-26T09:48:28.171Z,53.70
2023-01-26T09:49:46.899Z,58.55
2023-01-26T09:50:56.450Z,49.95
2023-01-26T09:52:05.077Z,54.53
2023-01-26T09:53:15.628Z,52.78
2023-01-26T09:54:28.028Z,51.47
2023-01-26T09:55:31.653Z,52.20
2023-01-26T09:56:38.223Z,52.15
2023-01-26T09:57:47.136Z,69.07
2023-01-26T09:58:54.582Z,58.63
2023-01-26T10:00:03.465Z,48.88
2023-01-26T10:01:15.081Z,56.20
2023-01-26T10:02:27.238Z,53.30
2023-01-26T10:03:44.013Z,50.03
2023-01-26T10:04:51.896Z,51.95
2023-01-26T10:06:02.006Z,49.78
2023-01-26T10:07:10.620Z,58.20
2023-01-26T10:08:13.635Z,47.60
2023-01-26T10:09:22.660Z,54.97
2023-01-26T10:10:33.301Z,53.58
2023-01-26T10:11:41.109Z,50.13
2023-01-26T10:12:44.077Z,48.80
2023-01-26T10:13:51.496Z,50.67
2023-01-26T10:14:59.937Z,50.35
2023-01-26T10:16:08.981Z,52.97
2023-01-26T10:17:15.952Z,43.95
2023-01-26T10:18:23.098Z,56.72
2023-01-26T10:19:33.710Z,52.75
2023-01-26T10:20:38.296Z,50.13
2023-01-26T10:21:45.390Z,50.65
2023-01-26T10:22:52.771Z,47.25
2023-01-26T10:24:05.628Z,50.40
2023-01-26T10:25:17.495Z,54.42
2023-01-26T10:26:23.427Z,52.00
2023-01-26T10:27:25.082Z,46.80
2023-01-26T10:28:30.420Z,49.00
2023-01-26T10:29:42.939Z,55.13
2023-01-26T10:30:47.466Z,50.30
2023-01-26T10:31:51.707Z,54.28
2023-01-26T10:32:54.424Z,43.17
2023-01-26T10:33:58.894Z,42.95
2023-01-26T10:35:01.493Z,52.20
2023-01-26T10:36:14.008Z,95.47
2023-01-26T10:37:22.253Z,46.92
2023-01-26T10:38:41.546Z,46.95
2023-01-26T10:39:58.583Z,44.88
2023-01-26T10:41:02.264Z,57.72
2023-01-26T10:42:04.999Z,47.63
2023-01-26T10:43:18.953Z,44.95
2023-01-26T10:44:26.648Z,46.35
2023-01-26T10:45:32.964Z,46.38
2023-01-26T10:46:37.842Z,39.35
2023-01-26T10:47:41.853Z,40.50
2023-01-26T10:48:52.267Z,45.38
2023-01-26T10:50:16.362Z,41.05
2023-01-26T10:51:26.911Z,46.75
2023-01-26T10:52:29.701Z,38.67
2023-01-26T10:53:32.214Z,44.67
2023-01-26T10:54:35.350Z,40.13
2023-01-26T10:55:43.595Z,44.10
2023-01-26T10:56:46.862Z,41.40
2023-01-26T10:57:49.441Z,51.53
2023-01-26T10:58:55.915Z,39.42
2023-01-26T11:00:01.239Z,44.53
2023-01-26T11:01:05.493Z,47.22
2023-01-26T11:02:23.175Z,42.80
2023-01-26T11:03:28.663Z,42.67
2023-01-26T11:04:30.334Z,46.65
2023-01-26T11:05:33.211Z,44.47
2023-01-26T11:06:35.310Z,36.58
2023-01-26T11:07:39.783Z,36.72
2023-01-26T11:08:42.648Z,36.25
2023-01-26T11:09:45.266Z,38.38
2023-01-26T11:10:54.166Z,36.78
2023-01-26T11:12:01.701Z,36.65
2023-01-26T11:13:09.547Z,38.35
2023-01-26T11:14:12.484Z,40.40
2023-01-26T11:15:18.596Z,35.33
2023-01-26T11:16:25.870Z,34.13
2023-01-26T11:17:34.895Z,29.17
2023-01-26T11:18:47.192Z,31.75
2023-01-26T11:20:13.562Z,32.47
2023-01-26T11:21:21.115Z,32.13
2023-01-26T11:22:32.329Z,28.45
2023-01-26T11:23:54.655Z,31.60
2023-01-26T11:25:03.592Z,30.67
2023-01-26T11:26:24.482Z,32.05
2023-01-26T11:27:38.624Z,24.95
2023-01-26T11:28:56.086Z,30.10
2023-01-26T11:30:40.307Z,33.45
2023-01-26T11:31:52.346Z,30.45
2023-01-26T11:32:59.824Z,23.95
2023-01-26T11:34:20.212Z,23.38
2023-01-26T11:35:31.455Z,28.17
2023-01-26T11:36:45.834Z,26.25
2023-01-26T11:37:52.451Z,29.25
2023-01-26T11:39:03.710Z,25.23
2023-01-26T11:40:20.436Z,28.17
2023-01-26T11:41:31.950Z,25.27
2023-01-26T11:42:54.454Z,26.95
2023-01-26T11:44:23.073Z,30.13
2023-01-26T11:45:34.031Z,28.23
2023-01-26T11:47:03.690Z,26.10
2023-01-26T11:48:17.635Z,28.75
2023-01-26T11:49:48.948Z,25.65
2023-01-26T11:50:58.668Z,25.02
2023-01-26T11:52:10.339Z,23.48
2023-01-26T11:53:39.989Z,24.65
2023-01-26T11:55:03.098Z,23.42
2023-01-26T11:56:27.041Z,22.67
2023-01-26T11:57:38.298Z,22.45
2023-01-26T11:58:45.780Z,26.08
2023-01-26T11:59:54.062Z,20.10
2023-01-26T12:01:00.188Z,26.83
2023-01-26T12:02:06.564Z,24.20
2023-01-26T12:03:19.550Z,23.30
2023-01-26T12:04:23.303Z,23.05
2023-01-26T12:05:31.689Z,20.65
2023-01-26T12:06:39.322Z,22.25
2023-01-26T12:07:54.434Z,20.15
2023-01-26T12:09:01.135Z,23.67
2023-01-26T12:10:06.890Z,23.63
2023-01-26T12:11:22.951Z,18.45
2023-01-26T12:12:33.308Z,23.33
2023-01-26T12:13:40.108Z,21.65
2023-01-26T12:14:49.547Z,14.50
2023-01-26T12:15:57.917Z,19.33
2023-01-26T12:17:18.810Z,18.00
2023-01-26T12:18:32.278Z,14.38
2023-01-26T12:19:49.152Z,14.32
2023-01-26T12:20:59.242Z,14.23
2023-01-26T12:22:05.242Z,15.27
2023-01-26T12:23:18.424Z,14.30
2023-01-26T12:24:54.355Z,14.98
2023-01-26T12:25:57.179Z,13.85
2023-01-26T12:26:59.234Z,15.57
2023-01-26T12:28:11.259Z,18.40
2023-01-26T12:29:19.849Z,18.58
2023-01-26T12:30:33.927Z,12.75
2023-01-26T12:31:44.703Z,15.80
2023-01-26T12:32:47.311Z,16.23
2023-01-26T12:33:54.592Z,18.95
2023-01-26T12:34:58.855Z,14.50
2023-01-26T12:36:17.043Z,16.88
2023-01-26T12:37:36.587Z,14.15
2023-01-26T12:39:01.133Z,16.17
2023-01-26T12:40:17.362Z,16.65
2023-01-26T12:41:26.797Z,17.00
2023-01-26T12:42:42.310Z,13.70
2023-01-26T12:43:57.949Z,16.00
2023-01-26T12:45:02.277Z,15.55
2023-01-26T12:46:05.701Z,17.42
2023-01-26T12:47:15.822Z,19.48
2023-01-26T12:48:22.766Z,14.63
2023-01-26T12:49:29.531Z,13.60
2023-01-26T12:50:40.900Z,17.70
2023-01-26T12:51:57.809Z,14.48
2023-01-26T12:53:07.118Z,13.77
2023-01-26T12:54:19.235Z,18.70
2023-01-26T12:55:27.271Z,16.77
2023-01-26T12:56:33.136Z,18.88
2023-01-26T12:57:41.141Z,16.63
2023-01-26T12:58:46.739Z,12.88
2023-01-26T12:59:49.678Z,15.02
2023-01-26T13:00:56.917Z,16.63
2023-01-26T13:02:00.565Z,22.20
2023-01-26T13:03:08.010Z,15.05
2023-01-26T13:04:13.648Z,16.23
2023-01-26T13:05:26.930Z,15.05
2023-01-26T13:06:30.165Z,11.90
2023-01-26T13:07:35.609Z,13.27
2023-01-26T13:08:54.255Z,15.18
2023-01-26T13:10:20.343Z,9.55
2023-01-26T13:11:44.186Z,13.48
2023-01-26T13:12:48.156Z,14.05
2023-01-26T13:13:55.424Z,9.88
2023-01-26T13:15:00.450Z,9.38
2023-01-26T13:16:34.848Z,13.65
2023-01-26T13:17:49.561Z,10.82
2023-01-26T13:18:53.152Z,9.15
2023-01-26T13:19:59.614Z,10.35
2023-01-26T13:21:02.259Z,11.18
2023-01-26T13:22:36.030Z,9.73
2023-01-26T13:23:44.658Z,9.63
2023-01-26T13:24:48.615Z,8.30
2023-01-26T13:26:16.883Z,10.45
2023-01-26T13:27:32.162Z,9.07
2023-01-26T13:28:34.685Z,10.38
2023-01-26T13:29:56.257Z,12.07
2023-01-26T13:31:05.797Z,9.38
2023-01-26T13:32:46.660Z,12.50
2023-01-26T13:33:50.410Z,10.40
2023-01-26T13:34:57.443Z,11.75
2023-01-26T13:36:03.998Z,15.00
2023-01-26T13:37:12.856Z,10.30
2023-01-26T13:38:25.573Z,14.20
2023-01-26T13:39:32.864Z,13.73
2023-01-26T13:40:36.072Z,14.48
2023-01-26T13:41:45.558Z,13.68
2023-01-26T13:42:59.156Z,11.45
2023-01-26T13:44:11.410Z,13.07
2023-01-26T13:45:19.052Z,11.50
2023-01-26T13:46:29.539Z,14.45
2023-01-26T13:47:38.652Z,16.67
2023-01-26T13:48:44.884Z,15.98
2023-01-26T13:49:52.463Z,16.77
2023-01-26T13:51:01.582Z,14.60
2023-01-26T13:52:04.404Z,18.48
2023-01-26T13:53:32.388Z,17.98
2023-01-26T13:54:37.212Z,18.83
2023-01-26T13:55:42.116Z,17.50
2023-01-26T13:57:01.112Z,19.52
2023-01-26T13:58:14.826Z,15.43
2023-01-26T13:59:20.632Z,19.20
2023-01-26T14:00:22.472Z,23.33
2023-01-26T14:01:26.104Z,17.38
2023-01-26T14:02:31.542Z,23.35
2023-01-26T14:03:33.747Z,21.85
2023-01-26T14:04:37.669Z,17.38
2023-01-26T14:05:40.260Z,16.55
2023-01-26T14:06:48.661Z,21.30
2023-01-26T14:07:51.248Z,18.77
2023-01-26T14:08:56.726Z,19.60
2023-01-26T14:10:02.878Z,21.67
2023-01-26T14:11:16.888Z,17.58
2023-01-26T14:12:23.701Z,20.23
2023-01-26T14:13:31.746Z,23.27
2023-01-26T14:14:37.688Z,20.02
2023-01-26T14:15:39.475Z,19.15
2023-01-26T14:16:42.306Z,18.90
2023-01-26T14:17:49.861Z,17.83
2023-01-26T14:18:52.117Z,19.98
2023-01-26T14:19:54.858Z,25.42
2023-01-26T14:21:03.898Z,25.08
2023-01-26T14:22:13.301Z,21.58
2023-01-26T14:23:18.695Z,32.20
2023-01-26T14:24:32.862Z,23.42
2023-01-26T14:25:36.734Z,26.23
2023-01-26T14:26:39.381Z,26.75
2023-01-26T14:27:43.252Z,30.63
2023-01-26T14:28:45.861Z,26.98
2023-01-26T14:29:48.654Z,31.25
2023-01-26T14:30:52.684Z,25.83
2023-01-26T14:31:59.047Z,26.55
2023-01-26T14:33:06.065Z,27.30
2023-01-26T14:34:11.807Z,30.05
2023-01-26T14:35:19.587Z,30.73
2023-01-26T14:36:22.665Z,32.28
2023-01-26T14:37:24.733Z,42.05
2023-01-26T14:38:43.853Z,40.05
2023-01-26T14:39:47.878Z,41.90
2023-01-26T14:40:55.099Z,45.80
2023-01-26T14:41:58.327Z,35.80
2023-01-26T14:43:00.430Z,45.63
2023-01-26T14:44:06.008Z,40.42
2023-01-26T14:45:13.051Z,42.65
2023-01-26T14:46:18.922Z,45.55
2023-01-26T14:47:25.031Z,49.38
2023-01-26T14:48:32.004Z,42.60
2023-01-26T14:49:43.729Z,49.30
2023-01-26T14:50:50.065Z,44.72
2023-01-26T14:51:58.298Z,48.65
2023-01-26T14:53:01.509Z,45.33
2023-01-26T14:54:12.631Z,47.92
2023-01-26T14:55:21.877Z,60.35
2023-01-26T14:56:33.668Z,48.40
2023-01-26T14:57:35.398Z,58.90
2023-01-26T14:58:38.053Z,54.40
2023-01-26T14:59:40.765Z,52.05
2023-01-26T15:00:43.465Z,50.50
2023-01-26T15:01:45.079Z,51.15
2023-01-26T15:02:50.049Z,55.13
2023-01-26T15:04:00.115Z,60.90
2023-01-26T15:05:13.830Z,58.53